Aeroporto :
LOGIN :

Iscrizione | Disclaimer

   EN    FR    IT 

 










Sommario :    VFR   VFR Marginale   IFR   IFR Intensivo   IFR Molto Intensivo
Visibilità : 
Base nubi : 
>= 8 km
>= 3000ft
5 / 8 km
1000 / 3000 ft
1500m / 5 km
500 / 1000 ft
800 / 1500m
200 / 500 ft
< 800m
< 200 ft
Simboli :   Temporali  Nebbia  Neve Forte  Precipitazioni Forti  Vento > 20 kt
SIGMETs :   Varie  Temporali  Ghiacco  Turbolenza  Onda orograficha  Ceneri Vulcaniche







- Altitudine del aeroporto : 170 ft
- Codice IATA : BGO


ENBR - Bergen , Flesland

ULTIMO METAR :
  • 221150Z 15020G31KT 9999 SCT014 BKN020 07/04 Q1017 TEMPO 4000 -RA BR BKN007 RMK WIND 1200FT 15037G49KT

METARs OBSOLETI :
  • 221120Z 16024G37KT 9999 VCSH FEW015 BKN020 07/04 Q1018 TEMPO BKN014 RMK WIND 1200FT 15037G49KT
  • 221050Z 16024G34KT 9999 -RA FEW015 SCT020 BKN025 07/03 Q1019 NOSIG RMK WIND 1200FT 15036G47KT
  • 221020Z 16024G36KT 9999 -RA FEW015 BKN025 07/02 Q1020 RMK WIND 1200FT 15038G50KT
  • 220950Z 16020KT 9999 -RA FEW015 BKN027 08/M00 Q1020 TEMPO 16028G38KT RMK WIND 1200FT 16036G49KT
  • 220920Z 16017G28KT 9999 -RA FEW015 BKN028 07/M03 Q1020 TEMPO 16028G38KT RMK WIND 1200FT 15031G43KT

TAF ENBR
Valido dal 22 a 06 ore il 23 a 06 ore UTC


2206/2306 15015KT 9999 BKN040
BECMG 2206/2208 16018G28KT
TEMPO 2209/2220 16028G38KT
BECMG 2212/2215 4000 -RA BKN010
TEMPO 2214/2222 2000 RADZ BR BKN004
BECMG 2220/2223 24015KT 9999 NSW SCT020
PROB30
TEMPO 2300/2306 25020G30KT SHRA BKN014CB
Nessun NOTAM noto per questo aeroporto.
2 SIGMETs conosciuti per la FIR Norway (ENOR) :
 
Forte onda orograficha
ENSV SIGMET B01 VALID 220915/221315 ENVV
ENOR NORWAY FIR SEV MTW FCST WI N6025 E00730 - N5930 E00530 - N6200 E00500 - N6200 E00730 - N6025 E00730 SFC/FL180 STNR INTSF=
Forte onda orograficha
ENBD SIGMET C01 VALID 220920/221320 ENVV
ENOR NORWAY FIR SEV MTW FCST WI N6200 E00500 - N6240 E00635 - N6255 E01005 - N6200 E00845 - N6200 E00500 SFC/FL180 STNR INTSF=



MetMap, La meteo Aeronautica in un colpo d'occhio ! - Copyright ORBIFLY Dicembre 2007 - Disclaimer

ORBIFLY MET'MAP TEAM :

Programmazione e sviluppo : Alexandra Zaïnal
Concezione e sviluppo : Baudouin d'Aumeries
Co-Programmazione e sviluppo : Marc-Olivier Méhu
Supporto tecnico e logistico : Manuel Goepfert
Aiuto per la traduzione : Arnaldo La Scala

Contatto : metmap@orbifly.com




FONTI E CREDITI :

   NOAA